Tuesday, August 21, 2018, 1:54 PM GMT
Back to Local

CYYY, Mont Joli, Que.

Location: , , Canada Lat: 48.6
Local Time: 1:54 PM GMT (13:54 GMT) Lon: -68.217
Time Zone: GMT Elev: 157 ft

Show me the last for .
Show Decoded

2018-08-21 07:00 METAR CYYY 210700Z 18006KT 15SM SCT070 17/11 A3010 RMK AC4 SLP193 DENSITY ALT
                 300FT =
2018-08-21 05:00 METAR CYYY 210500Z 16006KT 15SM SCT260 18/12 A3010 RMK CI4 SLP196 DENSITY ALT
                 400FT =
2018-08-21 04:00 METAR CYYY 210400Z 17005KT 15SM BKN260 18/12 A3011 RMK CI5 SLP198 DENSITY ALT
                 400FT =
2018-08-21 03:00 METAR CYYY 210300Z 16009KT 15SM SCT260 19/12 A3010 RMK CI3 SLP196 DENSITY ALT
                 500FT =
2018-08-21 02:00 METAR CYYY 210200Z 17005KT 15SM SCT260 19/13 A3011 RMK CI4 SLP198 DENSITY ALT
                 500FT =
2018-08-21 01:00 METAR CYYY 210100Z 00000KT 15SM SCT260 19/13 A3011 RMK CI4 SLP197 DENSITY ALT
                 500FT =
2018-08-21 00:00 METAR CYYY 210000Z 19002KT 15SM SCT260 19/14 A3010 RMK CI4 SLP195 DENSITY ALT
                 600FT =
2018-08-20 23:00 METAR CYYY 202300Z 24003KT 15SM SCT260 21/13 A3009 RMK CI3 SLP192 DENSITY ALT
                 700FT =
2018-08-20 22:00 METAR CYYY 202200Z 28006KT 15SM FEW240 21/13 A3009 RMK CI1 CI TR SLP192 DENSITY
                 ALT 800FT =
2018-08-20 21:00 METAR CYYY 202100Z 28005KT 30SM FEW040 FEW240 22/14 A3009 RMK CU1CI1 CU TR
                 SLP191 DENSITY ALT 900FT =
2018-08-20 20:00 METAR CYYY 202000Z 25003KT 230V300 30SM FEW040 25/14 A3010 RMK CU1 SLP195
                 DENSITY ALT 1200FT =
2018-08-20 19:00 METAR CYYY 201900Z 30004KT 240V330 30SM FEW040 22/15 A3012 RMK CU1 SLP201
                 DENSITY ALT 900FT =
2018-08-20 18:00 METAR CYYY 201800Z 27006KT 30SM FEW040 20/14 A3013 RMK CU1 SLP207 DENSITY ALT
                 600FT =
2018-08-20 17:00 METAR CYYY 201700Z CCA 29009KT 30SM FEW035 21/13 A3013 RMK CU1 CU TR SLP207
                 DENSITY ALT 700FT =
2018-08-20 16:00 METAR CYYY 201600Z 27004KT 30SM FEW220 20/14 A3015 RMK CI1 SLP213 DENSITY ALT
                 600FT =
2018-08-20 15:00 METAR CYYY 201500Z 28003KT 30SM FEW220 20/14 A3016 RMK CI1 SLP217 DENSITY ALT
                 500FT =
2018-08-20 14:00 METAR CYYY 201400Z 28007KT 30SM FEW220 17/12 A3018 RMK CI1 SLP221 DENSITY ALT
                 200FT =

Support USWX by starting your Amazon purchase here.